createdAt,value
2023-04-27T00:00:44.491Z,7.10
2023-04-27T00:03:16.964Z,7.10
2023-04-27T00:05:45.415Z,6.50
2023-04-27T00:08:14.200Z,6.00
2023-04-27T00:10:42.296Z,6.50
2023-04-27T00:13:10.627Z,6.20
2023-04-27T00:15:38.800Z,6.20
2023-04-27T00:18:07.110Z,6.10
2023-04-27T00:20:35.889Z,6.20
2023-04-27T00:23:04.145Z,7.00
2023-04-27T00:25:32.219Z,6.30
2023-04-27T00:28:00.391Z,6.50
2023-04-27T00:30:29.072Z,6.50
2023-04-27T00:32:57.372Z,6.40
2023-04-27T00:35:25.726Z,7.00
2023-04-27T00:37:55.360Z,6.60
2023-04-27T00:40:23.471Z,6.80
2023-04-27T00:42:51.784Z,7.50
2023-04-27T00:45:19.847Z,6.80
2023-04-27T00:47:48.214Z,6.10
2023-04-27T00:50:17.107Z,6.10
2023-04-27T00:52:45.719Z,6.70
2023-04-27T00:55:13.861Z,7.00
2023-04-27T00:57:42.041Z,6.40
2023-04-27T01:00:13.596Z,6.60
2023-04-27T01:05:10.662Z,7.20
2023-04-27T01:07:40.663Z,5.60
2023-04-27T01:10:09.682Z,6.70
2023-04-27T01:12:37.946Z,6.20
2023-04-27T01:15:07.509Z,6.60
2023-04-27T01:17:36.017Z,6.60
2023-04-27T01:20:10.521Z,7.00
2023-04-27T01:22:39.229Z,6.40
2023-04-27T01:25:08.090Z,6.80
2023-04-27T01:27:36.293Z,6.20
2023-04-27T01:30:06.546Z,6.20
2023-04-27T01:32:37.685Z,5.80
2023-04-27T01:35:07.272Z,6.60
2023-04-27T01:37:35.878Z,6.30
2023-04-27T01:40:06.619Z,6.10
2023-04-27T01:42:34.844Z,6.60
2023-04-27T01:45:04.296Z,6.10
2023-04-27T01:47:33.381Z,6.50
2023-04-27T01:50:01.925Z,6.40
2023-04-27T01:52:30.222Z,4.90
2023-04-27T01:54:58.400Z,7.50
2023-04-27T01:57:27.030Z,8.90
2023-04-27T01:59:56.568Z,10.60
2023-04-27T02:02:24.822Z,10.20
2023-04-27T02:04:53.198Z,10.60
2023-04-27T02:07:21.561Z,10.00
2023-04-27T02:09:49.853Z,8.30
2023-04-27T02:12:17.946Z,8.90
2023-04-27T02:14:46.025Z,7.80
2023-04-27T02:17:14.235Z,9.60
2023-04-27T02:19:42.696Z,10.10
2023-04-27T02:22:11.137Z,10.30
2023-04-27T02:24:39.225Z,8.80
2023-04-27T02:27:07.394Z,9.50
2023-04-27T02:29:38.992Z,9.80
2023-04-27T02:32:07.785Z,9.10
2023-04-27T02:34:35.885Z,9.80
2023-04-27T02:37:04.525Z,9.70
2023-04-27T02:39:33.684Z,9.80
2023-04-27T02:42:03.080Z,11.20
2023-04-27T02:44:31.264Z,10.30
2023-04-27T02:46:59.450Z,10.70
2023-04-27T02:49:27.715Z,10.80
2023-04-27T02:51:56.899Z,9.00
2023-04-27T02:54:25.596Z,10.10
2023-04-27T02:56:53.958Z,11.10
2023-04-27T02:59:22.203Z,10.40
2023-04-27T03:01:50.503Z,10.30
2023-04-27T03:04:19.006Z,9.10
2023-04-27T03:06:47.580Z,9.60
2023-04-27T03:09:17.250Z,10.80
2023-04-27T03:11:45.515Z,9.90
2023-04-27T03:14:13.630Z,10.10
2023-04-27T03:16:41.818Z,10.80
2023-04-27T03:19:10.903Z,11.60
2023-04-27T03:21:38.902Z,9.00
2023-04-27T03:24:07.338Z,10.50
2023-04-27T03:26:35.710Z,9.60
2023-04-27T03:29:05.422Z,9.90
2023-04-27T03:31:33.715Z,9.90
2023-04-27T03:34:01.762Z,11.00
2023-04-27T03:36:29.932Z,9.80
2023-04-27T03:38:58.019Z,10.90
2023-04-27T03:41:26.414Z,12.50
2023-04-27T03:43:54.618Z,10.70
2023-04-27T03:46:23.003Z,11.00
2023-04-27T03:48:51.324Z,11.10
2023-04-27T03:51:19.475Z,10.70
2023-04-27T03:53:47.840Z,10.20
2023-04-27T03:56:15.966Z,9.70
2023-04-27T03:58:44.104Z,10.30
2023-04-27T04:01:23.126Z,11.10
2023-04-27T04:03:52.082Z,8.90
2023-04-27T04:06:20.933Z,8.90
2023-04-27T04:08:49.027Z,11.10
2023-04-27T04:11:17.603Z,10.20
2023-04-27T04:13:46.249Z,9.50
2023-04-27T04:16:14.449Z,8.80
2023-04-27T04:18:42.816Z,8.10
2023-04-27T04:21:11.789Z,9.40
2023-04-27T04:23:41.388Z,8.20
2023-04-27T04:26:10.160Z,7.50
2023-04-27T04:28:38.873Z,7.10
2023-04-27T04:31:09.695Z,7.80
2023-04-27T04:33:38.225Z,7.50
2023-04-27T04:36:06.901Z,8.00
2023-04-27T04:38:35.558Z,8.30
2023-04-27T04:41:03.921Z,6.60
2023-04-27T04:43:33.950Z,6.90
2023-04-27T04:46:04.898Z,6.30
2023-04-27T04:48:33.089Z,5.70
2023-04-27T04:51:01.218Z,5.30
2023-04-27T04:53:30.738Z,5.60
2023-04-27T04:56:09.071Z,4.20
2023-04-27T04:58:37.326Z,4.60
2023-04-27T05:01:06.951Z,4.70
2023-04-27T05:03:35.267Z,5.10
2023-04-27T05:06:03.738Z,5.70
2023-04-27T05:08:32.058Z,4.40
2023-04-27T05:11:00.544Z,3.60
2023-04-27T05:13:29.140Z,4.60
2023-04-27T05:15:57.537Z,4.50
2023-04-27T05:18:25.732Z,4.90
2023-04-27T05:20:53.763Z,4.80
2023-04-27T05:23:22.060Z,5.20
2023-04-27T05:25:50.104Z,5.40
2023-04-27T05:28:18.158Z,4.40
2023-04-27T05:30:46.354Z,4.10
2023-04-27T05:33:14.377Z,4.30
2023-04-27T05:35:42.477Z,3.90
2023-04-27T05:38:10.979Z,4.50
2023-04-27T05:40:39.162Z,5.40
2023-04-27T05:43:07.308Z,3.80
2023-04-27T05:45:39.735Z,4.70
2023-04-27T05:48:08.225Z,4.60
2023-04-27T05:50:36.429Z,3.90
2023-04-27T05:53:05.841Z,4.00
2023-04-27T05:55:34.105Z,3.80
2023-04-27T05:58:08.712Z,4.30
2023-04-27T06:00:38.546Z,4.50
2023-04-27T06:03:07.436Z,4.70
2023-04-27T06:05:36.015Z,4.10
2023-04-27T06:08:04.318Z,4.30
2023-04-27T06:10:32.565Z,4.30
2023-04-27T06:13:00.554Z,4.10
2023-04-27T06:15:28.617Z,5.80
2023-04-27T06:17:57.136Z,4.10
2023-04-27T06:22:53.685Z,4.00
2023-04-27T06:25:24.448Z,4.10
2023-04-27T06:27:56.454Z,3.80
2023-04-27T06:30:25.422Z,4.50
2023-04-27T06:35:22.388Z,4.50
2023-04-27T06:37:50.555Z,4.30
2023-04-27T06:40:18.634Z,4.30
2023-04-27T06:42:47.004Z,4.90
2023-04-27T06:45:15.080Z,4.20
2023-04-27T06:47:43.388Z,3.80
2023-04-27T06:50:11.854Z,3.90
2023-04-27T06:52:40.092Z,5.30
2023-04-27T06:55:08.694Z,3.70
2023-04-27T06:57:36.887Z,4.70
2023-04-27T07:00:05.964Z,4.80
2023-04-27T07:02:34.469Z,3.90
2023-04-27T07:05:03.053Z,4.60
2023-04-27T07:07:31.366Z,11.40
2023-04-27T07:09:59.470Z,3.90
2023-04-27T07:12:27.518Z,5.10
2023-04-27T07:14:55.824Z,4.40
2023-04-27T07:17:23.890Z,5.00
2023-04-27T07:19:52.091Z,4.40
2023-04-27T07:22:20.371Z,4.50
2023-04-27T07:24:48.404Z,4.10
2023-04-27T07:27:16.689Z,5.20
2023-04-27T07:29:45.177Z,4.30
2023-04-27T07:32:13.566Z,4.40
2023-04-27T07:34:52.795Z,4.70
2023-04-27T07:37:24.125Z,4.80
2023-04-27T07:39:53.264Z,4.00
2023-04-27T07:42:25.287Z,4.50
2023-04-27T07:44:54.377Z,4.30
2023-04-27T07:47:22.487Z,4.60
2023-04-27T07:49:51.121Z,4.40
2023-04-27T07:54:47.268Z,4.40
2023-04-27T07:57:15.846Z,4.60
2023-04-27T07:59:43.888Z,5.00
2023-04-27T08:02:19.629Z,3.70
2023-04-27T08:04:50.052Z,3.80
2023-04-27T08:07:19.639Z,4.80
2023-04-27T08:09:52.418Z,4.10
2023-04-27T08:12:20.857Z,4.30
2023-04-27T08:14:48.862Z,3.90
2023-04-27T08:17:18.569Z,4.30
2023-04-27T08:19:46.760Z,3.90
2023-04-27T08:22:14.958Z,4.30
2023-04-27T08:24:43.210Z,4.40
2023-04-27T08:27:11.405Z,4.00
2023-04-27T08:29:39.507Z,3.70
2023-04-27T08:32:08.415Z,4.00
2023-04-27T08:34:36.570Z,3.70
2023-04-27T08:37:04.935Z,3.90
2023-04-27T08:42:01.713Z,3.50
2023-04-27T08:44:29.911Z,4.00
2023-04-27T08:46:58.248Z,4.20
2023-04-27T08:49:26.935Z,4.40
2023-04-27T08:51:55.416Z,4.00
2023-04-27T08:54:23.518Z,4.50
2023-04-27T08:56:51.761Z,4.50
2023-04-27T08:59:19.841Z,4.50
2023-04-27T09:01:49.489Z,4.10
2023-04-27T09:04:18.685Z,4.60
2023-04-27T09:06:47.018Z,5.10
2023-04-27T09:09:23.653Z,4.60
2023-04-27T09:11:52.114Z,3.80
2023-04-27T09:14:22.696Z,4.10
2023-04-27T09:16:58.080Z,5.10
2023-04-27T09:19:30.314Z,4.20
2023-04-27T09:22:11.073Z,5.10
2023-04-27T09:24:39.357Z,4.70
2023-04-27T09:27:09.006Z,4.20
2023-04-27T09:29:38.519Z,4.10
2023-04-27T09:32:17.311Z,4.30
2023-04-27T09:37:15.164Z,4.90
2023-04-27T09:39:43.545Z,4.80
2023-04-27T09:42:13.267Z,4.40
2023-04-27T09:44:41.420Z,4.60
2023-04-27T09:47:11.258Z,4.30
2023-04-27T09:49:39.628Z,4.90
2023-04-27T09:52:07.791Z,4.00
2023-04-27T09:54:37.498Z,4.20
2023-04-27T09:57:22.111Z,4.50
2023-04-27T10:00:11.213Z,5.90
2023-04-27T10:03:11.700Z,4.70
2023-04-27T10:06:01.629Z,3.60
2023-04-27T10:08:30.315Z,5.20
2023-04-27T10:10:58.600Z,5.50
2023-04-27T10:13:27.159Z,3.50
2023-04-27T10:15:55.562Z,5.40
2023-04-27T10:18:30.712Z,4.30
2023-04-27T10:21:11.186Z,4.50
2023-04-27T10:23:48.526Z,4.40
2023-04-27T10:26:26.738Z,3.80
2023-04-27T10:29:09.356Z,3.90
2023-04-27T10:31:44.255Z,3.80
2023-04-27T10:34:19.750Z,3.90
2023-04-27T10:36:49.467Z,3.90
2023-04-27T10:39:19.054Z,4.70
2023-04-27T10:41:54.816Z,4.30
2023-04-27T10:44:28.937Z,5.30
2023-04-27T10:47:02.164Z,4.80
2023-04-27T10:49:31.451Z,4.90
2023-04-27T10:52:03.071Z,4.20
2023-04-27T10:54:32.428Z,4.40
2023-04-27T10:57:09.152Z,5.50
2023-04-27T10:59:57.288Z,4.80
2023-04-27T11:02:27.978Z,3.90
2023-04-27T11:04:56.921Z,4.50
2023-04-27T11:09:55.939Z,4.70
2023-04-27T11:12:24.338Z,4.20
2023-04-27T11:14:58.619Z,3.80
2023-04-27T11:17:30.759Z,4.90
2023-04-27T11:19:59.055Z,4.90
2023-04-27T11:22:27.829Z,4.80
2023-04-27T11:24:56.620Z,4.70
2023-04-27T11:27:25.530Z,4.70
2023-04-27T11:29:53.536Z,5.40
2023-04-27T11:32:23.220Z,4.80
2023-04-27T11:34:54.650Z,4.20
2023-04-27T11:37:26.040Z,5.00
2023-04-27T11:39:55.029Z,4.60
2023-04-27T11:42:31.695Z,5.30
2023-04-27T11:45:06.183Z,4.50
2023-04-27T11:47:36.280Z,4.90
2023-04-27T11:50:08.103Z,3.90
2023-04-27T11:52:39.208Z,4.70
2023-04-27T11:55:09.358Z,5.10
2023-04-27T11:57:39.028Z,5.60
2023-04-27T12:00:11.467Z,4.90
2023-04-27T12:02:44.118Z,5.80
2023-04-27T12:05:13.947Z,4.50
2023-04-27T12:07:43.661Z,5.10
2023-04-27T12:10:12.375Z,5.20
2023-04-27T12:12:40.956Z,4.90
2023-04-27T12:15:09.848Z,4.90
2023-04-27T12:17:39.320Z,4.70
2023-04-27T12:20:08.582Z,3.60
2023-04-27T12:22:37.362Z,5.60
2023-04-27T12:25:06.121Z,4.50
2023-04-27T12:27:34.295Z,4.80
2023-04-27T12:30:02.619Z,4.90
2023-04-27T12:32:30.868Z,4.30
2023-04-27T12:34:59.217Z,4.30
2023-04-27T12:37:27.272Z,4.60
2023-04-27T12:39:55.679Z,4.60
2023-04-27T12:42:24.679Z,4.60
2023-04-27T12:47:46.047Z,4.10
2023-04-27T12:50:11.197Z,5.10
2023-04-27T12:52:39.350Z,4.60
2023-04-27T12:55:17.952Z,4.70
2023-04-27T12:57:53.398Z,5.00
2023-04-27T13:00:21.614Z,4.50
2023-04-27T13:02:50.904Z,4.10
2023-04-27T13:05:19.155Z,4.40
2023-04-27T13:07:47.254Z,4.60
2023-04-27T13:10:15.516Z,4.40
2023-04-27T13:12:44.104Z,3.70
2023-04-27T13:15:12.220Z,4.90
2023-04-27T13:17:43.025Z,5.10
2023-04-27T13:20:12.725Z,4.90
2023-04-27T13:22:41.916Z,4.20
2023-04-27T13:27:38.871Z,4.70
2023-04-27T13:30:08.405Z,4.20
2023-04-27T13:32:36.651Z,4.30
2023-04-27T13:35:05.662Z,4.20
2023-04-27T13:37:33.949Z,4.30
2023-04-27T13:40:02.339Z,4.40
2023-04-27T13:42:30.834Z,3.90
2023-04-27T13:44:58.960Z,3.90
2023-04-27T13:47:29.342Z,4.30
2023-04-27T13:49:57.453Z,4.40
2023-04-27T13:52:25.733Z,3.80
2023-04-27T13:54:53.748Z,5.70
2023-04-27T13:57:21.892Z,5.00
2023-04-27T13:59:50.011Z,4.80
2023-04-27T14:02:18.329Z,4.40
2023-04-27T14:04:46.608Z,4.90
2023-04-27T14:07:15.712Z,3.70
2023-04-27T14:09:43.993Z,4.70
2023-04-27T14:12:12.746Z,4.90
2023-04-27T14:14:41.236Z,3.90
2023-04-27T14:17:09.407Z,4.80
2023-04-27T14:19:38.100Z,3.80
2023-04-27T14:22:08.244Z,4.90
2023-04-27T14:24:36.485Z,4.40
2023-04-27T14:27:04.657Z,4.60
2023-04-27T14:29:32.835Z,4.80
2023-04-27T14:32:00.910Z,4.50
2023-04-27T14:34:29.283Z,4.50
2023-04-27T14:36:57.460Z,3.80
2023-04-27T14:39:27.700Z,4.70
2023-04-27T14:41:55.965Z,4.70
2023-04-27T14:44:24.662Z,4.60
2023-04-27T14:46:52.785Z,4.50
2023-04-27T14:49:21.299Z,4.80
2023-04-27T14:51:49.565Z,3.60
2023-04-27T14:54:17.711Z,3.70
2023-04-27T14:56:46.461Z,4.20
2023-04-27T14:59:14.749Z,4.10
2023-04-27T15:01:43.333Z,4.90
2023-04-27T15:04:12.550Z,4.60
2023-04-27T15:06:41.059Z,3.80
2023-04-27T15:09:09.545Z,4.70
2023-04-27T15:11:37.972Z,4.10
2023-04-27T15:14:06.434Z,4.00
2023-04-27T15:16:34.637Z,4.00
2023-04-27T15:19:03.776Z,3.80
2023-04-27T15:21:32.556Z,4.00
2023-04-27T15:24:00.934Z,4.10
2023-04-27T15:26:29.101Z,4.20
2023-04-27T15:28:59.557Z,4.40
2023-04-27T15:31:28.081Z,4.50
2023-04-27T15:33:56.391Z,3.60
2023-04-27T15:36:26.930Z,4.80
2023-04-27T15:38:55.266Z,3.00
2023-04-27T15:41:23.587Z,4.10
2023-04-27T15:43:52.456Z,4.80
2023-04-27T15:46:20.636Z,3.20
2023-04-27T15:48:49.035Z,3.80
2023-04-27T15:51:17.084Z,3.90
2023-04-27T15:53:45.145Z,4.30
2023-04-27T15:56:13.627Z,4.30
2023-04-27T15:58:41.879Z,4.60
2023-04-27T16:01:09.998Z,3.40
2023-04-27T16:03:38.314Z,4.30
2023-04-27T16:06:07.235Z,4.10
2023-04-27T16:08:36.367Z,3.60
2023-04-27T16:11:04.514Z,5.10
2023-04-27T16:13:32.835Z,4.80
2023-04-27T16:16:01.197Z,4.10
2023-04-27T16:18:29.486Z,4.60
2023-04-27T16:20:58.839Z,4.00
2023-04-27T16:23:27.313Z,3.80
2023-04-27T16:25:55.479Z,3.90
2023-04-27T16:28:23.716Z,4.00
2023-04-27T16:30:52.889Z,3.50
2023-04-27T16:33:21.422Z,4.50
2023-04-27T16:35:50.049Z,4.50
2023-04-27T16:38:18.345Z,4.70
2023-04-27T16:40:46.527Z,3.50
2023-04-27T16:43:14.762Z,3.20
2023-04-27T16:45:43.034Z,4.30
2023-04-27T16:48:12.234Z,3.60
2023-04-27T16:50:41.129Z,3.30
2023-04-27T16:53:13.737Z,3.80
2023-04-27T16:55:41.895Z,3.80
2023-04-27T16:58:10.112Z,4.00
2023-04-27T17:00:40.290Z,3.70
2023-04-27T17:03:09.811Z,3.60
2023-04-27T17:05:38.157Z,4.50
2023-04-27T17:08:06.486Z,3.90
2023-04-27T17:10:36.788Z,4.80
2023-04-27T17:13:06.031Z,3.90
2023-04-27T17:15:34.133Z,4.10
2023-04-27T17:18:04.928Z,4.40
2023-04-27T17:20:33.238Z,4.20
2023-04-27T17:23:01.624Z,4.10
2023-04-27T17:25:29.817Z,3.60
2023-04-27T17:27:59.536Z,3.50
2023-04-27T17:30:29.385Z,3.00
2023-04-27T17:32:57.952Z,4.80
2023-04-27T17:35:26.968Z,4.10
2023-04-27T17:37:55.068Z,3.80
2023-04-27T17:40:23.229Z,4.60
2023-04-27T17:42:51.609Z,3.50
2023-04-27T17:45:19.863Z,4.40
2023-04-27T17:47:48.919Z,5.40
2023-04-27T17:52:47.653Z,5.00
2023-04-27T17:55:15.944Z,5.80
2023-04-27T17:57:44.388Z,6.50
2023-04-27T18:00:13.431Z,6.20
2023-04-27T18:02:42.089Z,6.90
2023-04-27T18:05:10.571Z,6.20
2023-04-27T18:07:38.960Z,7.90
2023-04-27T18:10:08.191Z,6.30
2023-04-27T18:15:06.960Z,6.80
2023-04-27T18:17:38.155Z,7.00
2023-04-27T18:20:10.143Z,6.00
2023-04-27T18:22:40.368Z,5.50
2023-04-27T18:25:10.027Z,5.60
2023-04-27T18:27:38.894Z,4.60
2023-04-27T18:30:10.893Z,5.50
2023-04-27T18:32:39.245Z,4.50
2023-04-27T18:35:08.148Z,5.20
2023-04-27T18:37:36.274Z,4.50
2023-04-27T18:40:06.080Z,4.90
2023-04-27T18:42:34.430Z,4.80
2023-04-27T18:45:02.746Z,4.10
2023-04-27T18:47:30.824Z,5.40
2023-04-27T18:49:58.907Z,6.10
2023-04-27T18:52:27.467Z,6.10
2023-04-27T18:54:55.832Z,5.50
2023-04-27T18:57:24.811Z,5.30
2023-04-27T18:59:52.901Z,4.40
2023-04-27T19:02:21.219Z,5.10
2023-04-27T19:04:56.715Z,5.10
2023-04-27T19:07:30.618Z,6.00
2023-04-27T19:09:59.329Z,6.00
2023-04-27T19:12:27.616Z,4.60
2023-04-27T19:14:55.965Z,5.20
2023-04-27T19:17:24.468Z,5.80
2023-04-27T19:19:52.816Z,6.00
2023-04-27T19:22:21.102Z,4.90
2023-04-27T19:24:49.473Z,5.10
2023-04-27T19:27:17.775Z,4.80
2023-04-27T19:29:54.931Z,5.90
2023-04-27T19:32:27.912Z,6.40
2023-04-27T19:34:58.036Z,6.00
2023-04-27T19:37:28.065Z,6.20
2023-04-27T19:39:56.535Z,5.60
2023-04-27T19:42:25.042Z,5.80
2023-04-27T19:44:53.319Z,5.90
2023-04-27T19:47:21.300Z,6.30
2023-04-27T19:49:49.358Z,5.20
2023-04-27T19:52:17.609Z,6.20
2023-04-27T19:54:51.539Z,5.40
2023-04-27T19:57:20.200Z,6.20
2023-04-27T19:59:48.349Z,5.70
2023-04-27T20:02:17.453Z,5.50
2023-04-27T20:04:46.179Z,5.40
2023-04-27T20:07:14.418Z,4.60
2023-04-27T20:09:42.744Z,5.90
2023-04-27T20:12:23.754Z,4.60
2023-04-27T20:14:57.323Z,5.30
2023-04-27T20:17:26.319Z,5.20
2023-04-27T20:19:56.570Z,5.00
2023-04-27T20:22:24.952Z,5.20
2023-04-27T20:24:53.263Z,4.50
2023-04-27T20:27:21.422Z,5.20
2023-04-27T20:29:49.613Z,6.20
2023-04-27T20:32:17.753Z,4.90
2023-04-27T20:34:45.821Z,5.30
2023-04-27T20:37:13.998Z,5.60
2023-04-27T20:39:42.245Z,5.90
2023-04-27T20:42:12.726Z,4.40
2023-04-27T20:44:40.844Z,5.50
2023-04-27T20:47:08.940Z,5.90
2023-04-27T20:49:37.018Z,6.10
2023-04-27T20:52:05.157Z,5.60
2023-04-27T20:54:33.457Z,5.40
2023-04-27T20:57:02.392Z,4.40
2023-04-27T20:59:30.660Z,4.60
2023-04-27T21:01:58.899Z,4.60
2023-04-27T21:04:27.245Z,4.30
2023-04-27T21:06:55.407Z,5.00
2023-04-27T21:09:23.709Z,5.60
2023-04-27T21:11:52.103Z,5.50
2023-04-27T21:14:20.586Z,4.70
2023-04-27T21:16:49.007Z,5.10
2023-04-27T21:19:17.854Z,4.40
2023-04-27T21:21:46.023Z,5.40
2023-04-27T21:24:14.429Z,4.90
2023-04-27T21:26:42.982Z,5.20
2023-04-27T21:29:11.438Z,5.80
2023-04-27T21:31:39.670Z,4.20
2023-04-27T21:34:08.421Z,4.20
2023-04-27T21:36:37.440Z,5.10
2023-04-27T21:39:06.098Z,4.90
2023-04-27T21:41:34.893Z,4.60
2023-04-27T21:44:03.695Z,5.00
2023-04-27T21:49:00.341Z,5.20
2023-04-27T21:51:29.008Z,5.30
2023-04-27T21:53:57.188Z,5.20
2023-04-27T21:56:25.298Z,4.60
2023-04-27T21:58:55.370Z,4.90
2023-04-27T22:01:23.711Z,5.00
2023-04-27T22:03:52.723Z,5.20
2023-04-27T22:06:21.968Z,5.70
2023-04-27T22:08:50.372Z,5.30
2023-04-27T22:11:18.508Z,5.10
2023-04-27T22:13:46.658Z,5.30
2023-04-27T22:16:15.012Z,5.50
2023-04-27T22:18:43.214Z,5.20
2023-04-27T22:21:13.017Z,5.40
2023-04-27T22:23:41.297Z,12.30
2023-04-27T22:26:09.415Z,10.70
2023-04-27T22:28:37.453Z,11.40
2023-04-27T22:31:06.171Z,11.60
2023-04-27T22:33:34.571Z,11.70
2023-04-27T22:36:02.810Z,12.20
2023-04-27T22:38:31.426Z,12.50
2023-04-27T22:40:59.609Z,13.70
2023-04-27T22:43:27.810Z,12.70
2023-04-27T22:45:56.089Z,12.60
2023-04-27T22:48:24.260Z,13.60
2023-04-27T22:50:52.637Z,13.80
2023-04-27T22:53:21.323Z,15.10
2023-04-27T22:55:49.499Z,13.30
2023-04-27T22:58:18.482Z,14.20
2023-04-27T23:00:46.745Z,15.60
2023-04-27T23:03:15.211Z,14.10
2023-04-27T23:05:43.723Z,14.20
2023-04-27T23:08:13.453Z,14.80
2023-04-27T23:10:41.625Z,15.10
2023-04-27T23:13:11.312Z,14.80
2023-04-27T23:15:39.730Z,15.70
2023-04-27T23:18:08.110Z,14.40
2023-04-27T23:20:36.540Z,16.10
2023-04-27T23:23:04.640Z,15.90
2023-04-27T23:25:33.815Z,16.50
2023-04-27T23:28:03.117Z,17.80
2023-04-27T23:30:32.650Z,17.90
2023-04-27T23:35:29.913Z,14.60
2023-04-27T23:40:26.637Z,13.10
2023-04-27T23:42:55.948Z,15.20
2023-04-27T23:45:24.312Z,13.40
2023-04-27T23:47:52.829Z,13.60
2023-04-27T23:50:21.066Z,12.90
2023-04-27T23:52:49.855Z,12.20
2023-04-27T23:55:18.646Z,12.20
2023-04-27T23:57:46.952Z,12.30
